Date,TemperatureHighF,TemperatureAvgF,TemperatureLowF,DewpointHighF,DewpointAvgF,DewpointLowF,HumidityHigh,HumidityAvg,HumidityLow,PressureMaxIn,PressureMinIn,WindSpeedMaxMPH,WindSpeedAvgMPH,GustSpeedMaxMPH,PrecipitationSumIn
2013-3-1,65,32,30,58,27,25,88,83,75,29.82,29.65,8,1,8,0.13
2013-3-2,65,29,24,30,22,18,83,74,63,29.82,29.76,12,3,12,0.05
2013-3-3,57,24,20,34,16,13,77,72,66,29.81,29.73,16,5,16,0.00
2013-3-4,64,26,22,32,17,15,76,70,61,29.95,29.79,30,8,30,0.00
2013-3-5,48,30,25,30,20,17,79,68,58,30.11,29.95,12,4,12,0.00
2013-3-6,60,32,25,28,23,20,82,69,58,30.17,30.06,17,4,17,0.00
2013-3-7,66,31,26,26,22,19,88,71,55,30.20,30.13,17,5,17,0.00
2013-3-8,40,29,25,26,23,20,90,78,56,30.33,30.14,18,7,18,0.02
2013-3-9,91,33,22,42,20,16,80,60,38,30.39,30.31,14,3,14,0.00
2013-3-10,60,38,24,36,21,16,71,53,32,30.40,30.23,16,5,17,0.00
2013-3-11,59,41,-18,37,29,-63,76,64,7,30.28,30.03,21,8,21,0.00
2013-3-12,51,46,37,48,42,32,90,83,76,30.06,29.72,29,9,29,0.81
2013-3-13,45,38,30,32,25,20,82,62,39,29.93,29.83,17,5,17,2.37
2013-3-14,32,27,24,22,12,6,64,54,43,29.95,29.87,26,9,26,0.01
2013-3-15,36,28,17,27,16,5,79,61,45,30.21,29.70,17,5,17,0.15
2013-3-16,63,28,19,52,14,6,76,56,40,30.37,30.21,15,3,15,0.31
2013-3-17,40,26,16,13,7,-1,66,46,26,30.64,30.11,21,5,21,0.19
2013-3-18,65,26,14,24,6,-3,77,45,24,30.40,30.04,16,3,16,0.00
2013-3-19,34,29,25,28,24,20,86,81,77,30.04,29.66,7,1,7,0.00
2013-3-20,37,26,17,21,17,11,80,67,51,29.78,29.72,15,2,15,0.07
2013-3-21,36,27,16,16,12,7,72,53,36,29.77,29.60,12,3,12,0.09
2013-3-22,45,27,17,21,16,6,74,63,53,29.78,29.32,24,5,24,0.02
2013-3-23,37,31,27,21,19,16,76,61,48,29.84,29.73,33,8,33,0.64
2013-3-24,78,34,28,30,20,-32,67,56,40,30.15,29.62,12,4,12,0.02
2013-3-25,49,32,25,24,20,-2,72,61,45,29.78,29.53,14,3,14,0.00
2013-3-26,54,36,29,30,21,16,74,56,34,29.85,29.61,15,3,15,0.01
2013-3-27,48,37,26,29,23,15,72,58,44,29.94,29.78,18,4,18,0.18
2013-3-28,45,38,32,32,28,24,82,68,56,30.09,29.89,13,3,13,0.32
2013-3-29,90,40,31,33,27,23,76,60,43,30.12,30.04,17,4,17,0.87
2013-3-30,86,41,29,51,23,18,77,51,29,30.13,29.97,14,3,14,0.14
2013-3-31,59,42,30,34,23,2,79,49,28,30.12,29.70,23,6,23,0.07